Terminal Aerodrome Forecast
Issued by NWS

Home | Current Version | Previous Version | Text Only | Print | Product List | Glossary On
Versions: 1 2 3 4 5 6 7 8 9 10 11 12 13 14
000
FTUS41 KBTV 182320
TAFMSS
TAF
KMSS 182320Z 1900/1924 30012G22KT P6SM SCT070
     FM190200 33007KT P6SM SKC
     FM191200 04006KT P6SM SKC=

USA.gov is the U.S. government's official web portal to all federal, state and local government web resources and services.